Main page
METAR-TAF:

METAR-TAF

Airports :

Karaj, Iran

Payam International Airport

latitude: 35-46-34N, longitude: 050-49-36E, elevation: 1271 m

Current weather observation

The report was made 16 minutes ago, at 17:00 UTC
Wind 20 kt from the West
Temperature 21°C
Humidity 38%
Pressure 1012 hPa
Visibility 10 km or more
no clouds below 1500 m and no cumulonimbus

METAR: OIIP 231700Z 28020KT CAVOK 21/06 Q1012

Time: 21:46 (17:16 UTC)


TAF: missing

Weather observations and forecasts of more than 4000 airports (METAR and TAF reports).

The available stations are represented by yellow and red dots on the map.

Hover mouse over dot to see the name of the station.

Then click to see weather observations and forecasts.

To change the map : click on the green buttons with a black cross to zoom in, on the green button with a dash to zoom out, or on the green arrows for adjacent maps.


METAR-TAF: